METAR Data
IDs: Format: Raw Decoded Include TAF

Data at: 2122 UTC 06 Dec 2019

KGYH 062047Z 24004KT 10SM CLR 14/02 A3015
KGYH 061947Z 00000KT 10SM BKN110 15/02 A3013
KGYH 061847Z 14004KT 10SM SCT065 13/01 A3014
KGYH 061747Z 00000KT 10SM SCT065 12/02 A3018
KGYH 061647Z 24005KT 10SM SCT060 11/02 A3022
KGYH 061547Z 23004KT 10SM SCT060 09/02 A3024
KGYH 061447Z 23004KT 10SM BKN100 08/01 A3023
KGYH 061347Z 00000KT 10SM OVC110 08/01 A3019
KGYH 061247Z 00000KT 10SM BKN120 07/M02 A3020
KGYH 061147Z 00000KT 10SM SCT110 06/M01 A3019
KGYH 061135Z AUTO 00000KT 10SM BKN120 06/01 A3020 RMK AO2
KGYH 061115Z AUTO 00000KT 10SM BKN120 06/01 A3019 RMK AO2
KGYH 061055Z AUTO 00000KT 10SM SCT120 05/02 A3019 RMK AO2
KGYH 061035Z AUTO 00000KT 10SM BKN110 06/00 A3018 RMK AO2
KGYH 061015Z AUTO 00000KT 10SM OVC110 06/00 A3018 RMK AO2
KGYH 060955Z AUTO 00000KT 10SM OVC110 05/02 A3018 RMK AO2
KGYH 060935Z AUTO 00000KT 10SM OVC110 06/01 A3018 RMK AO2
KGYH 060915Z AUTO 00000KT 10SM OVC110 07/00 A3018 RMK AO2
KGYH 060855Z AUTO 00000KT 10SM BKN110 06/00 A3018 RMK AO2
KGYH 060835Z AUTO 00000KT 10SM CLR 06/01 A3019 RMK AO2
KGYH 060815Z AUTO 00000KT 10SM SCT120 05/01 A3019 RMK AO2
KGYH 060755Z AUTO 00000KT 10SM SCT120 05/01 A3020 RMK AO2
KGYH 060735Z AUTO 29003KT 10SM CLR 06/01 A3019 RMK AO2
KGYH 060715Z AUTO 00000KT 10SM CLR 06/00 A3018 RMK AO2
KGYH 060655Z AUTO 00000KT 10SM CLR 06/00 A3018 RMK AO2
KGYH 060635Z AUTO 00000KT 10SM CLR 07/M01 A3018 RMK AO2
KGYH 060615Z AUTO 00000KT 10SM CLR 06/M01 A3018 RMK AO2
KGYH 060555Z AUTO 00000KT 10SM CLR 06/M02 A3018 RMK AO2
KGYH 060535Z AUTO 14003KT 10SM CLR 02/M02 A3018 RMK AO2
KGYH 060515Z AUTO 27004KT 10SM CLR 06/M02 A3018 RMK AO2
KGYH 060455Z AUTO 00000KT 10SM CLR 03/M01 A3018 RMK AO2
KGYH 060435Z AUTO 00000KT 10SM CLR 06/M02 A3018 RMK AO2
KGYH 060415Z AUTO 00000KT 10SM CLR 07/M03 A3018 RMK AO2
KGYH 060355Z AUTO 00000KT 10SM CLR 05/M02 A3018 RMK AO2
KGYH 060335Z AUTO 00000KT 10SM CLR 05/M01 A3018 RMK AO2
KGYH 060315Z AUTO 00000KT 10SM CLR 08/M05 A3017 RMK AO2
KGYH 060147Z 00000KT 10SM CLR 10/M06 A3016 RMK LAST
KGYH 060047Z 00000KT 10SM CLR 11/M06 A3015
KGYH 052347Z 00000KT 10SM CLR 11/M06 A3014
KGYH 052247Z 00000KT 10SM CLR 13/M06 A3012
KGYH 052147Z 23005KT 10SM CLR 15/M04 A3011
KGYH 052047Z 23005KT 10SM CLR 17/M06 A3010
KGYH 051947Z 23005KT 10SM CLR 17/M06 A3008
KGYH 051847Z VRB03KT 10SM CLR 17/M06 A3008
KGYH 051747Z VRB03KT 10SM CLR 16/M06 A3009
KGYH 051647Z VRB03KT 10SM CLR 14/M05 A3011
KGYH 051547Z 04004KT 10SM CLR 13/M05 A3011
KGYH 051447Z 00000KT 10SM CLR 12/M03 A3009
KGYH 051347Z 00000KT 10SM CLR 10/M04 A3006
KGYH 051247Z VRB004KT 10SM CLR 07/M04 A3003
KGYH 051147Z 00000KT 10SM CLR 08/M05 A2999
KGYH 051135Z AUTO 00000KT 10SM CLR 07/M04 A2998 RMK AO2
KGYH 051115Z AUTO 26004KT 10SM CLR 07/M04 A2998 RMK AO2
KGYH 051055Z AUTO 23004KT 10SM CLR 04/M03 A2998 RMK AO2
KGYH 051035Z AUTO 00000KT 10SM CLR 05/M04 A2997 RMK AO2
KGYH 051015Z AUTO 24003KT 10SM CLR 05/M03 A2995 RMK AO2
KGYH 050955Z AUTO 23003KT 10SM CLR 06/M03 A2994 RMK AO2
KGYH 050935Z AUTO 23005KT 10SM CLR 07/M03 A2993 RMK AO2